Latest Coastal Weather Observations for East Sale Airport

IDV60701

Issued at 3:41 am EST Friday 20 September 2019 (issued every 10 minutes, with the page automatically refreshed every 10 minutes)

About coastal observations | Map of coastal stations | Coastal observations for VIC | Marine services | Other Formats
Station Details ID: 085314 Name: EAST SALE AIRPORT Lat: -38.10 Lon: 147.14 Height: 5.3 m
Data from the previous 72 hours. | See also: Recent months at East Sale Airport
Date/Time
EST
Wind Sea
Height
m
Swell Vis
km
Cloud Weather Temp
°C
Press
hPa
Rain since
9am
mm
Dir  Spd
kts
Gust
kts
Height
m
Period
s
Dir
20/03:30am SSW 3 4 - - - - 10 Clear - 10.4 1016.7 0.0
20/03:00am SSW 3 4 - - - - 10 - - 10.3 1016.8 0.0
20/02:30am ESE 1 4 - - - - 10 - - 10.4 1016.9 0.0
20/02:00am NW 3 5 - - - - 10 - - 10.5 1017.0 0.0
20/01:30am NW 3 3 - - - - 10 - - 10.7 1017.2 0.0
20/01:00am NNE 2 3 - - - - 10 - - 10.9 1017.6 0.0
20/12:30am ENE 5 6 - - - - 10 - - 12.3 1017.6 0.0
20/12:00am NE 7 8 - - - - 10 - - 14.4 1017.6 0.0
 
Date/Time
EST
Wind Sea
Height
m
Swell Vis
km
Cloud Weather Temp
°C
Press
hPa
Rain since
9am
mm
Dir  Spd
kts
Gust
kts
Height
m
Period
s
Dir
19/11:30pm NE 8 10 - - - - 10 - - 15.7 1017.7 0.0
19/11:00pm NE 7 9 - - - - 10 - - 15.1 1017.6 0.0
19/10:30pm NE 5 8 - - - - 10 - - 11.9 1017.9 0.0
19/10:20pm ENE 3 5 - - - - 10 - - 11.3 1018.0 0.0
19/10:00pm CALM 0 3 - - - - 4 - - 11.3 1018.1 0.0
19/09:32pm CALM 0 0 - - - - 5 - - 12.2 1018.3 0.0
19/09:30pm CALM 0 0 - - - - 10 - - 12.0 1018.3 0.0
19/09:00pm E 3 4 - - - - 10 - - 12.1 1018.5 0.0
19/08:30pm ESE 2 3 - - - - 10 - - 12.7 1018.7 0.0
19/08:00pm SE 2 4 - - - - 10 - - 13.2 1018.6 0.0
19/07:30pm E 4 6 - - - - 10 - - 13.6 1018.5 0.0
19/07:00pm E 5 8 - - - - 10 - - 14.1 1018.5 0.0
19/06:30pm ESE 6 7 - - - - 10 - - 14.9 1018.5 0.0
19/06:00pm ESE 7 8 - - - - 10 - - 16.1 1018.5 0.0
19/05:30pm ESE 7 9 - - - - 10 - - 18.2 1018.6 0.0
19/05:00pm ESE 10 12 - - - - 10 - - 19.5 1018.7 0.0
19/04:30pm ESE 10 12 - - - - 10 - - 20.2 1018.8 0.0
19/04:00pm E 12 14 - - - - 10 - - 20.5 1018.8 0.0
19/03:30pm ESE 12 15 - - - - 10 - - 21.1 1019.0 0.0
19/03:00pm E 13 16 - - - - 10 - - 21.7 1019.2 0.0
19/02:30pm ESE 10 14 - - - - 10 - - 22.0 1019.5 0.0
19/02:00pm ESE 11 13 - - - - 10 - - 21.7 1019.8 0.0
19/01:30pm ESE 11 14 - - - - 10 - - 21.0 1020.0 0.0
19/01:00pm ESE 11 14 - - - - 10 - - 20.7 1020.5 0.0
19/12:30pm E 10 14 - - - - 10 - - 20.0 1021.0 0.0
19/12:00pm CALM 0 0 - - - - 10 - - 18.7 1021.7 0.0
19/11:30am CALM 0 0 - - - - 10 - - 17.6 1022.4 0.0
19/11:00am CALM 0 0 - - - - 10 - - 16.8 1022.9 0.0
19/10:30am CALM 0 0 - - - - 10 - - 15.9 1023.5 0.0
19/10:00am CALM 0 0 - - - - 10 - - 14.1 1024.0 0.0
19/09:30am CALM 0 0 - - - - 10 - - 13.1 1024.5 0.0
19/09:00am CALM 0 0 - - - - 10 - - 11.8 1024.9 -
19/08:30am CALM 0 0 - - - - 10 - - 10.7 1025.1 -
19/08:00am CALM 0 0 - - - - 10 - - 8.2 1025.1 -
19/07:30am CALM 0 0 - - - - 10 - - 7.1 1025.0 -
19/07:00am CALM 0 0 - - - - 10 - - 4.6 1024.9 -
19/06:30am CALM 0 0 - - - - 10 - - 3.7 1024.8 -
19/06:00am CALM 0 0 - - - - 10 - - 4.1 1024.9 -
19/05:30am CALM 0 0 - - - - 10 - - 2.9 1024.7 -
19/05:00am CALM 0 0 - - - - 10 - - 3.2 1024.7 -
19/04:30am CALM 0 0 - - - - 10 - - 3.8 1024.5 -
19/04:00am CALM 0 0 - - - - 10 - - 4.0 1024.4 -
19/03:30am CALM 0 0 - - - - 10 - - 5.0 1024.7 -
19/03:00am CALM 0 0 - - - - 10 - - 4.1 1024.6 0.0
19/02:30am CALM 0 0 - - - - 8 - - 4.3 1024.6 -
19/02:00am CALM 0 0 - - - - 10 - - 5.2 1024.8 -
19/01:30am CALM 0 0 - - - - 10 - - 5.7 1025.1 -
19/01:00am CALM 0 0 - - - - 10 - - 5.8 1025.6 -
19/12:30am CALM 0 0 - - - - 10 - - 5.7 1026.0 -
19/12:15am NNW 6 8 - - - - 10 - - 5.8 1026.1 -
19/12:00am CALM 0 0 - - - - 0.5 - Showers 7.1 1026.0 -
 
Date/Time
EST
Wind Sea
Height
m
Swell Vis
km
Cloud Weather Temp
°C
Press
hPa
Rain since
9am
mm
Dir  Spd
kts
Gust
kts
Height
m
Period
s
Dir
18/11:39pm CALM 0 0 - - - - 4 - - 6.9 1026.1 -
18/11:30pm CALM 0 0 - - - - 10 - - 7.5 1026.3 -
18/11:00pm CALM 0 0 - - - - 10 - - 7.2 1026.4 -
18/10:30pm SSE 3 4 - - - - 10 - - 9.1 1026.4 -
18/10:00pm S 4 5 - - - - 10 - - 8.3 1026.6 -
18/09:30pm SE 4 5 - - - - 10 - - 8.9 1026.7 -
18/09:00pm ESE 3 4 - - - - 10 - - 9.2 1026.6 0.0
18/08:30pm E 4 5 - - - - 10 - - 8.8 1026.6 -
18/08:00pm ESE 4 5 - - - - 10 - - 8.9 1026.5 -
18/07:30pm E 4 4 - - - - 10 - - 9.6 1026.5 -
18/07:00pm E 6 7 - - - - 10 - - 9.7 1026.3 -
18/06:30pm E 6 6 - - - - 10 - - 10.7 1026.2 -
18/06:00pm E 7 8 - - - - 10 - - 12.1 1026.2 -
18/05:30pm E 9 11 - - - - 10 - - 14.1 1026.0 -
18/05:00pm E 11 13 - - - - 10 - - 15.3 1025.7 -
18/04:30pm E 10 12 - - - - 10 - - 16.1 1025.6 -
18/04:00pm E 11 12 - - - - 10 - - 16.7 1025.5 -
18/03:30pm E 11 13 - - - - 10 - - 17.3 1025.4 -
18/03:00pm E 10 13 - - - - 10 - - 17.4 1025.6 -
18/02:30pm E 10 13 - - - - 10 - - 17.5 1025.8 -
18/01:30pm E 7 9 - - - - 10 - - 16.9 1025.9 0.2
18/01:00pm E 6 11 - - - - 10 - - 16.1 1026.3 0.2
18/12:30pm ENE 2 11 - - - - 10 - - 15.8 1026.7 0.2
18/12:00pm ENE 3 7 - - - - 10 - Recent precip. 14.6 1026.9 0.2
18/11:30am ESE 4 7 - - - - 10 - - 14.7 1027.4 0.0
18/11:00am ENE 5 7 - - - - 10 - - 13.1 1027.9 0.0
18/10:30am ENE 4 6 - - - - 10 - - 12.4 1028.2 0.0
18/10:00am ENE 3 4 - - - - 10 - - 11.6 1028.6 0.0
18/09:30am E 3 4 - - - - 10 - - 10.3 1029.0 0.0
18/09:00am NE 2 4 - - - - 10 Mostly clear - 9.5 1029.2 0.2
18/08:30am NNW 2 3 - - - - 10 Mostly clear - 7.9 1029.2 0.2
18/08:00am NNW 4 5 - - - - 10 - - 6.5 1029.2 0.2
18/07:30am CALM 0 3 - - - - 10 - - 4.4 1028.9 0.2
18/07:00am NW 3 4 - - - - 10 - - 3.1 1028.8 0.2
18/06:30am NW 5 6 - - - - 10 - - 2.1 1028.7 0.2
18/06:00am NW 5 5 - - - - 10 - - 2.0 1028.5 0.2
18/05:30am NNW 5 5 - - - - 10 - - 1.8 1028.4 0.2
18/05:15am NNW 5 6 - - - - 10 Partly cloudy - 1.7 1028.4 0.2
18/05:00am NNW 4 5 - - - - 10 Partly cloudy - 1.8 1028.3 0.2
18/04:30am NW 4 4 - - - - 10 Partly cloudy - 2.4 1028.3 0.2
18/04:29am NW 4 4 - - - - 10 Partly cloudy - 2.4 1028.3 0.2
18/04:00am WNW 3 4 - - - - 10 - - 2.7 1028.3 0.2
18/03:30am WNW 3 4 - - - - 10 - - 3.3 1028.4 0.2
18/03:00am WNW 3 4 - - - - 10 - - 3.1 1028.5 0.2
18/02:30am NNW 5 6 - - - - 10 - - 2.9 1028.6 0.2
18/02:00am NW 6 7 - - - - 10 - - 3.4 1028.8 0.2
18/01:30am NNW 6 9 - - - - 10 Partly cloudy - 3.4 1029.1 0.2
18/01:29am NNW 6 9 - - - - 10 Partly cloudy - 3.4 1029.0 0.2
18/01:07am NW 4 7 - - - - 5 Partly cloudy - 3.6 1029.0 0.2
18/01:00am SW 3 4 - - - - 10 - - 4.5 1029.0 0.2
18/12:30am SW 4 5 - - - - 10 - - 6.6 1029.1 0.2
18/12:00am SSW 4 5 - - - - 10 - - 6.3 1029.1 0.2
 
Date/Time
EST
Wind Sea
Height
m
Swell Vis
km
Cloud Weather Temp
°C
Press
hPa
Rain since
9am
mm
Dir  Spd
kts
Gust
kts
Height
m
Period
s
Dir
17/11:30pm S 4 5 - - - - 10 - - 5.1 1029.2 0.2
17/11:00pm SW 3 3 - - - - 10 - - 6.1 1029.4 0.2
17/10:30pm WNW 1 5 - - - - 10 - - 5.1 1029.5 0.2
17/10:00pm N 3 4 - - - - 10 - - 5.7 1029.4 0.2
17/09:30pm CALM 0 2 - - - - 10 - - 7.3 1029.4 0.2
17/09:00pm NE 3 4 - - - - 10 - - 7.1 1029.4 0.2
17/08:30pm NE 5 6 - - - - 10 - - 8.0 1029.1 0.2
17/08:00pm NNE 5 7 - - - - 10 - - 8.6 1029.0 0.2
17/07:30pm ENE 7 9 - - - - 10 - - 8.0 1028.8 0.2
17/07:00pm E 7 9 - - - - 10 - - 8.2 1028.5 0.2
17/06:30pm E 7 8 - - - - 10 - - 8.9 1028.1 0.2
17/06:00pm ESE 9 11 - - - - 10 - - 10.1 1027.9 0.2
17/05:30pm E 10 13 - - - - 10 Partly cloudy - 12.1 1027.8 0.2
17/05:00pm ESE 10 13 - - - - 10 Cloudy - 13.2 1027.6 0.2
17/04:30pm SE 9 11 - - - - 10 Cloudy - 13.1 1027.5 0.2
17/04:00pm ESE 8 12 - - - - 10 Partly cloudy - 13.1 1027.3 0.2
17/03:30pm ESE 10 13 - - - - 10 Mostly clear - 13.0 1027.3 0.2
17/03:00pm SE 9 13 - - - - 10 Mostly cloudy - 13.2 1027.3 0.2
17/02:30pm ESE 10 13 - - - - 10 Mostly clear - 13.6 1027.3 0.2
17/02:00pm E 10 14 - - - - 10 Partly cloudy - 14.3 1027.5 0.2
17/01:30pm ESE 8 11 - - - - 10 Cloudy - 13.7 1027.8 0.2
17/01:00pm ESE 9 13 - - - - 10 Cloudy - 14.1 1027.7 0.2
17/12:30pm ENE 8 12 - - - - 10 - - 13.3 1027.9 0.2
17/12:00pm ENE 7 11 - - - - 10 - - 13.8 1028.1 0.2
17/11:30am E 8 11 - - - - 10 - - 13.5 1028.0 0.2
17/11:00am ESE 4 8 - - - - 10 - - 12.8 1028.2 0.2
17/10:30am E 3 6 - - - - 10 - - 12.1 1028.4 0.0
17/10:00am WNW 3 5 - - - - 10 - - 10.8 1028.4 0.0
17/09:30am WNW 5 7 - - - - 10 Partly cloudy - 9.4 1028.4 0.0
17/09:00am NW 8 9 - - - - 10 Mostly cloudy - 7.9 1028.6 0.0
17/08:30am WNW 8 10 - - - - 10 Mostly clear - 7.1 1028.3 0.0
17/08:00am WNW 7 10 - - - - 10 Mostly clear - 5.7 1027.9 0.0
17/07:30am WNW 7 9 - - - - 10 - - 4.4 1027.4 0.0
17/07:00am WNW 6 9 - - - - 10 - - 3.2 1027.1 0.0
17/06:30am WNW 6 8 - - - - 10 - - 2.6 1026.8 0.0
17/06:00am NW 8 10 - - - - 10 - - 2.7 1026.5 0.0
17/05:30am NW 8 10 - - - - 10 - - 2.3 1026.4 0.0
17/05:00am NW 8 9 - - - - 10 - - 2.4 1026.2 0.0
17/04:30am NNW 7 8 - - - - 10 - - 2.5 1025.9 0.0
17/04:00am NNW 6 7 - - - - 10 Partly cloudy - 2.8 1026.0 0.0

Other formats

Comma delimited format used in spreadsheet applications
http://www.bom.gov.au/fwo/IDV60701/IDV60701.95907.axf

JavaScript Object Notation format (JSON) in row-major order
http://www.bom.gov.au/fwo/IDV60701/IDV60701.95907.json

Data quality

Most of these data are generated automatically and are frequently updated. Quality checks on data are not normally performed. It is possible for incorrect values to appear. Refer to information at About Latest Weather Observations and please check the disclaimer before using these data.